Time;durP1;ratioP1;P1;durP2;ratioP2;P2;SDS_P1;SDS_P2;PMS_P1;PMS_P2;Temp;Humidity;BMP_temperature;BMP_pressure;BME280_temperature;BME280_humidity;BME280_pressure;Samples;Min_cycle;Max_cycle;Signal;HPM_P1;HPM_P2
2021/03/10 00:00:07;;;;;;;39.40;22.27;;;;;;;;;;5024867;28;20195;-69
2021/03/10 00:02:32;;;;;;;44.97;23.50;;;;;;;;;;5028895;28;20189;-69
2021/03/10 00:04:57;;;;;;;46.70;24.70;;;;;;;;;;5025997;28;20267;-69
2021/03/10 00:07:24;;;;;;;42.03;23.43;;;;;;;;;;5029874;28;20186;-69
2021/03/10 00:09:50;;;;;;;45.77;24.77;;;;;;;;;;5031459;28;20668;-68
2021/03/10 00:12:15;;;;;;;45.60;24.03;;;;;;;;;;5020165;28;20202;-68
2021/03/10 00:14:40;;;;;;;44.37;24.73;;;;;;;;;;5032236;28;20178;-69
2021/03/10 00:17:06;;;;;;;46.30;24.67;;;;;;;;;;5032488;28;20213;-69
2021/03/10 00:19:31;;;;;;;45.87;24.40;;;;;;;;;;5035863;28;20661;-69
2021/03/10 00:21:56;;;;;;;48.33;25.47;;;;;;;;;;5028469;28;20266;-69
2021/03/10 00:24:21;;;;;;;45.17;24.97;;;;;;;;;;5036787;28;20264;-69
2021/03/10 00:26:47;;;;;;;43.77;25.10;;;;;;;;;;5031036;28;20272;-69
2021/03/10 00:29:12;;;;;;;45.30;24.83;;;;;;;;;;5033647;28;20255;-69
2021/03/10 00:31:38;;;;;;;45.07;24.43;;;;;;;;;;5028358;28;20196;-69
2021/03/10 00:34:03;;;;;;;44.47;23.60;;;;;;;;;;5042739;28;20250;-69
2021/03/10 00:36:28;;;;;;;43.17;23.47;;;;;;;;;;5029846;28;20577;-69
2021/03/10 00:38:54;;;;;;;51.40;24.50;;;;;;;;;;5035376;28;20276;-69
2021/03/10 00:41:19;;;;;;;41.13;23.50;;;;;;;;;;5038378;28;20557;-69
2021/03/10 00:43:44;;;;;;;44.80;24.87;;;;;;;;;;5023756;28;20193;-69
2021/03/10 00:46:10;;;;;;;46.03;23.93;;;;;;;;;;5033645;28;20231;-69
2021/03/10 00:48:35;;;;;;;43.83;25.10;;;;;;;;;;5031960;28;20181;-69
2021/03/10 00:51:00;;;;;;;42.73;23.40;;;;;;;;;;5039697;28;20194;-69
2021/03/10 00:53:26;;;;;;;42.93;23.60;;;;;;;;;;5029986;28;20178;-69
2021/03/10 00:55:51;;;;;;;42.37;23.10;;;;;;;;;;5038357;28;20586;-69
2021/03/10 00:58:16;;;;;;;45.80;24.20;;;;;;;;;;5030763;28;20233;-69
2021/03/10 01:00:41;;;;;;;43.20;23.90;;;;;;;;;;5040510;28;20196;-68
2021/03/10 01:03:07;;;;;;;44.83;24.03;;;;;;;;;;5031326;28;20220;-69
2021/03/10 01:05:32;;;;;;;49.60;25.33;;;;;;;;;;5036871;28;20290;-69
2021/03/10 01:07:57;;;;;;;55.13;27.63;;;;;;;;;;5027547;28;20531;-69
2021/03/10 01:10:23;;;;;;;62.90;30.20;;;;;;;;;;5045630;28;20197;-69
2021/03/10 01:12:48;;;;;;;66.73;30.93;;;;;;;;;;5038314;28;20189;-69
2021/03/10 01:15:17;;;;;;;67.73;30.77;;;;;;;;;;5023718;28;20191;-69
2021/03/10 01:17:43;;;;;;;65.20;32.73;;;;;;;;;;5039572;28;20201;-69
2021/03/10 01:20:12;;;;;;;68.03;31.77;;;;;;;;;;5029882;28;20669;-69
2021/03/10 01:22:37;;;;;;;60.67;30.70;;;;;;;;;;5040073;28;20224;-69
2021/03/10 01:25:04;;;;;;;67.93;32.20;;;;;;;;;;5036265;28;20209;-69
2021/03/10 01:27:29;;;;;;;59.50;30.07;;;;;;;;;;5038127;28;20186;-69
2021/03/10 01:29:55;;;;;;;54.73;28.83;;;;;;;;;;5039725;28;20185;-69
2021/03/10 01:32:20;;;;;;;54.90;29.27;;;;;;;;;;5042204;28;20198;-69
2021/03/10 01:34:45;;;;;;;54.77;27.60;;;;;;;;;;5034614;28;20199;-69
2021/03/10 01:37:11;;;;;;;48.70;26.93;;;;;;;;;;5038718;28;20320;-69
2021/03/10 01:39:36;;;;;;;49.87;26.60;;;;;;;;;;5032825;28;20275;-69
2021/03/10 01:42:02;;;;;;;46.63;25.20;;;;;;;;;;5039405;28;20190;-69
2021/03/10 01:44:29;;;;;;;47.60;26.03;;;;;;;;;;5033132;28;20189;-69
2021/03/10 01:46:55;;;;;;;50.60;25.57;;;;;;;;;;5036561;28;20275;-69
2021/03/10 01:49:21;;;;;;;48.17;26.00;;;;;;;;;;5039833;28;20289;-69
2021/03/10 01:51:46;;;;;;;48.10;26.77;;;;;;;;;;5032236;28;20192;-69
2021/03/10 01:54:13;;;;;;;52.30;26.37;;;;;;;;;;5038777;28;20550;-69
2021/03/10 01:56:39;;;;;;;46.50;24.63;;;;;;;;;;5031214;28;20221;-69
2021/03/10 01:59:05;;;;;;;47.13;26.13;;;;;;;;;;5038869;28;20173;-69
2021/03/10 02:01:30;;;;;;;42.10;23.80;;;;;;;;;;5032281;28;20204;-69
2021/03/10 02:03:55;;;;;;;45.90;25.40;;;;;;;;;;5038216;28;20547;-69
2021/03/10 02:06:58;;;;;;;52.70;26.57;;;;;;;;;;5030860;28;20185;-69
2021/03/10 02:09:50;;;;;;;46.17;25.03;;;;;;;;;;5041818;28;20181;-69
2021/03/10 02:12:35;;;;;;;47.73;25.90;;;;;;;;;;5032628;28;20280;-69
2021/03/10 02:15:28;;;;;;;51.77;26.77;;;;;;;;;;5039985;28;20261;-69
2021/03/10 02:18:16;;;;;;;46.30;24.87;;;;;;;;;;5031253;28;20205;-69
2021/03/10 02:20:48;;;;;;;49.57;25.80;;;;;;;;;;5039518;28;20208;-69
2021/03/10 02:23:42;;;;;;;50.57;26.00;;;;;;;;;;5028268;28;20178;-69
2021/03/10 02:26:31;;;;;;;53.67;26.93;;;;;;;;;;5034283;28;20206;-69
2021/03/10 02:29:01;;;;;;;56.20;27.50;;;;;;;;;;5029185;28;20190;-69
2021/03/10 02:31:29;;;;;;;52.53;26.37;;;;;;;;;;5047880;28;20189;-69
2021/03/10 02:33:56;;;;;;;51.70;26.23;;;;;;;;;;5033227;28;20197;-69
2021/03/10 02:36:23;;;;;;;52.17;26.57;;;;;;;;;;5036965;28;20244;-69
2021/03/10 02:38:51;;;;;;;55.10;27.57;;;;;;;;;;5028037;28;20250;-69
2021/03/10 02:41:17;;;;;;;60.53;29.53;;;;;;;;;;5039865;28;20653;-69
2021/03/10 02:43:45;;;;;;;63.43;29.93;;;;;;;;;;5028398;28;20260;-69
2021/03/10 02:46:10;;;;;;;64.17;30.33;;;;;;;;;;5040216;28;20189;-69
2021/03/10 02:48:38;;;;;;;66.83;30.60;;;;;;;;;;5029567;28;20182;-69
2021/03/10 02:51:05;;;;;;;59.70;29.43;;;;;;;;;;5036710;28;20217;-69
2021/03/10 02:53:31;;;;;;;64.47;28.87;;;;;;;;;;5026691;28;20197;-69
2021/03/10 02:55:57;;;;;;;54.40;28.30;;;;;;;;;;5034602;28;20190;-69
2021/03/10 02:58:22;;;;;;;57.23;28.93;;;;;;;;;;5029807;28;20218;-70
2021/03/10 03:00:48;;;;;;;57.80;28.07;;;;;;;;;;5040065;28;20187;-69
2021/03/10 03:03:13;;;;;;;59.07;28.30;;;;;;;;;;5041610;28;20177;-69
2021/03/10 03:05:38;;;;;;;50.57;26.83;;;;;;;;;;5033113;28;20220;-69
2021/03/10 03:08:05;;;;;;;55.07;26.33;;;;;;;;;;5034277;28;20174;-69
2021/03/10 03:10:38;;;;;;;53.43;27.53;;;;;;;;;;5034403;28;20235;-69
2021/03/10 03:13:08;;;;;;;52.83;27.37;;;;;;;;;;5035989;28;20224;-69
2021/03/10 03:15:34;;;;;;;50.33;26.33;;;;;;;;;;5030049;28;20550;-69
2021/03/10 03:18:01;;;;;;;52.80;27.17;;;;;;;;;;5040547;28;20540;-69
2021/03/10 03:20:27;;;;;;;57.17;27.87;;;;;;;;;;5031012;28;20189;-69
2021/03/10 03:22:55;;;;;;;51.30;25.67;;;;;;;;;;5033137;28;20661;-69
2021/03/10 03:25:23;;;;;;;55.43;27.00;;;;;;;;;;5036806;28;20186;-69
2021/03/10 03:27:55;;;;;;;53.27;27.37;;;;;;;;;;5037313;28;20189;-69
2021/03/10 03:30:22;;;;;;;55.13;26.20;;;;;;;;;;5031035;28;20197;-69
2021/03/10 03:32:49;;;;;;;53.83;25.83;;;;;;;;;;5036618;28;20675;-69
2021/03/10 03:35:16;;;;;;;53.83;25.97;;;;;;;;;;5025179;28;20264;-69
2021/03/10 03:37:44;;;;;;;54.47;27.07;;;;;;;;;;5040240;28;20274;-69
2021/03/10 03:40:11;;;;;;;50.60;25.87;;;;;;;;;;5029846;28;20642;-69
2021/03/10 03:42:37;;;;;;;47.33;24.67;;;;;;;;;;5034771;28;20189;-69
2021/03/10 03:45:03;;;;;;;52.50;26.10;;;;;;;;;;5037911;28;20235;-69
2021/03/10 03:47:29;;;;;;;48.07;25.70;;;;;;;;;;5031313;28;20676;-69
2021/03/10 03:49:54;;;;;;;51.83;26.53;;;;;;;;;;5033337;28;20291;-69
2021/03/10 03:52:19;;;;;;;49.93;26.80;;;;;;;;;;5024118;28;20185;-69
2021/03/10 03:54:45;;;;;;;49.57;25.03;;;;;;;;;;5037607;28;20534;-69
2021/03/10 03:57:10;;;;;;;51.47;25.23;;;;;;;;;;5023695;28;20212;-69
2021/03/10 03:59:36;;;;;;;46.93;25.07;;;;;;;;;;5036134;28;20338;-69
2021/03/10 04:02:01;;;;;;;53.23;25.90;;;;;;;;;;5027810;28;20668;-69
2021/03/10 04:04:27;;;;;;;48.50;25.03;;;;;;;;;;5035797;28;20239;-69
2021/03/10 04:06:52;;;;;;;54.33;26.30;;;;;;;;;;5029473;28;20182;-69
2021/03/10 04:09:18;;;;;;;53.70;25.87;;;;;;;;;;5032576;28;20528;-69
2021/03/10 04:11:47;;;;;;;54.13;26.00;;;;;;;;;;5035736;28;20927;-69
2021/03/10 04:14:13;;;;;;;54.30;25.90;;;;;;;;;;5030510;28;20173;-69
2021/03/10 04:16:39;;;;;;;54.90;25.37;;;;;;;;;;5038320;28;20354;-69
2021/03/10 04:19:05;;;;;;;52.77;24.53;;;;;;;;;;5030933;28;20209;-69
2021/03/10 04:21:30;;;;;;;45.40;23.43;;;;;;;;;;5035195;28;20185;-69
2021/03/10 04:23:57;;;;;;;43.50;22.23;;;;;;;;;;5030723;28;20186;-69
2021/03/10 04:26:22;;;;;;;46.77;24.40;;;;;;;;;;5035358;28;20193;-69
2021/03/10 04:28:48;;;;;;;45.30;24.03;;;;;;;;;;5036202;28;20185;-69
2021/03/10 04:31:13;;;;;;;48.53;24.00;;;;;;;;;;5038699;28;20194;-69
2021/03/10 04:33:38;;;;;;;50.43;25.20;;;;;;;;;;5032821;28;20219;-69
2021/03/10 04:36:05;;;;;;;48.33;24.83;;;;;;;;;;5036685;28;20193;-69
2021/03/10 04:38:30;;;;;;;56.67;24.90;;;;;;;;;;5029850;28;20185;-69
2021/03/10 04:40:56;;;;;;;52.50;26.70;;;;;;;;;;5034618;28;20195;-69
2021/03/10 04:43:21;;;;;;;52.00;25.10;;;;;;;;;;5027860;28;20609;-69
2021/03/10 04:45:47;;;;;;;54.37;25.87;;;;;;;;;;5028111;28;20190;-69
2021/03/10 04:48:12;;;;;;;48.17;25.17;;;;;;;;;;5040568;28;20609;-69
2021/03/10 04:50:37;;;;;;;55.37;26.20;;;;;;;;;;5031858;28;20198;-69
2021/03/10 04:53:03;;;;;;;61.20;27.00;;;;;;;;;;5035894;28;20255;-69
2021/03/10 04:55:28;;;;;;;51.43;24.60;;;;;;;;;;5030480;28;20665;-69
2021/03/10 04:57:53;;;;;;;48.03;23.63;;;;;;;;;;5038891;28;20201;-69
2021/03/10 05:00:19;;;;;;;47.63;23.70;;;;;;;;;;5036845;28;20193;-69
2021/03/10 05:02:45;;;;;;;52.33;25.37;;;;;;;;;;5039682;28;20205;-69
2021/03/10 05:05:11;;;;;;;54.03;25.67;;;;;;;;;;5028299;28;20735;-69
2021/03/10 05:07:36;;;;;;;52.93;26.17;;;;;;;;;;5035367;28;20181;-69
2021/03/10 05:10:03;;;;;;;50.70;25.17;;;;;;;;;;5031148;28;20542;-69
2021/03/10 05:12:30;;;;;;;56.43;26.30;;;;;;;;;;5035689;28;20182;-69
2021/03/10 05:14:57;;;;;;;52.50;24.27;;;;;;;;;;5029489;28;20280;-69
2021/03/10 05:17:23;;;;;;;55.80;25.43;;;;;;;;;;5040214;28;20198;-69
2021/03/10 05:19:48;;;;;;;48.03;23.20;;;;;;;;;;5044795;28;20196;-69
2021/03/10 05:22:14;;;;;;;51.43;24.10;;;;;;;;;;5032027;28;20196;-69
2021/03/10 05:24:39;;;;;;;44.70;22.90;;;;;;;;;;5038806;28;20182;-69
2021/03/10 05:27:05;;;;;;;44.30;22.90;;;;;;;;;;5036379;28;20185;-69
2021/03/10 05:29:30;;;;;;;48.00;24.23;;;;;;;;;;5041705;28;20181;-69
2021/03/10 05:31:55;;;;;;;48.63;24.57;;;;;;;;;;5032237;28;20248;-69
2021/03/10 05:34:21;;;;;;;56.07;25.30;;;;;;;;;;5040816;28;20238;-69
2021/03/10 05:36:46;;;;;;;56.13;26.77;;;;;;;;;;5027520;28;20317;-69
2021/03/10 05:39:13;;;;;;;60.10;28.50;;;;;;;;;;5044145;28;20196;-69
2021/03/10 05:41:38;;;;;;;56.07;27.67;;;;;;;;;;5033318;28;20343;-69
2021/03/10 05:44:04;;;;;;;55.20;26.10;;;;;;;;;;5045312;28;20315;-69
2021/03/10 05:46:29;;;;;;;55.63;24.83;;;;;;;;;;5032602;28;20194;-69
2021/03/10 05:48:55;;;;;;;52.60;26.10;;;;;;;;;;5032844;28;20272;-69
2021/03/10 05:51:20;;;;;;;57.80;26.73;;;;;;;;;;5036600;28;20270;-69
2021/03/10 05:53:46;;;;;;;52.30;26.03;;;;;;;;;;5030493;28;20685;-69
2021/03/10 05:56:13;;;;;;;59.37;26.80;;;;;;;;;;5040043;28;20664;-69
2021/03/10 05:58:38;;;;;;;61.20;27.50;;;;;;;;;;5032757;28;20308;-69
2021/03/10 06:01:04;;;;;;;59.03;27.47;;;;;;;;;;5040391;28;20277;-69
2021/03/10 06:03:29;;;;;;;60.07;28.00;;;;;;;;;;5031085;28;20192;-69
2021/03/10 06:06:04;;;;;;;58.43;27.93;;;;;;;;;;5035916;28;21440;-69
2021/03/10 06:08:35;;;;;;;61.10;29.43;;;;;;;;;;5027732;28;20185;-69
2021/03/10 06:11:01;;;;;;;59.63;28.90;;;;;;;;;;5036394;28;20300;-69
2021/03/10 06:13:31;;;;;;;64.50;29.13;;;;;;;;;;5026302;28;20559;-69
2021/03/10 06:16:00;;;;;;;60.40;29.47;;;;;;;;;;5037668;28;20186;-69
2021/03/10 06:18:33;;;;;;;61.20;27.97;;;;;;;;;;5027684;28;20217;-69
2021/03/10 06:21:07;;;;;;;58.50;28.80;;;;;;;;;;5038472;28;20193;-69
2021/03/10 06:23:34;;;;;;;62.17;29.27;;;;;;;;;;5023504;28;20250;-69
2021/03/10 06:26:00;;;;;;;58.30;28.57;;;;;;;;;;5036837;28;20602;-68
2021/03/10 06:28:38;;;;;;;61.90;28.60;;;;;;;;;;5034418;28;20187;-68
2021/03/10 06:31:22;;;;;;;60.90;29.33;;;;;;;;;;5035230;28;20552;-68
2021/03/10 06:34:08;;;;;;;60.67;29.27;;;;;;;;;;5037017;28;20645;-68
2021/03/10 06:36:35;;;;;;;59.43;29.37;;;;;;;;;;5037552;28;20507;-69
2021/03/10 06:39:03;;;;;;;60.70;29.63;;;;;;;;;;5036639;28;20189;-69
2021/03/10 06:41:38;;;;;;;62.60;29.17;;;;;;;;;;5029675;28;20202;-68
2021/03/10 06:44:14;;;;;;;58.60;28.73;;;;;;;;;;5034443;28;21315;-68
2021/03/10 06:46:59;;;;;;;57.93;29.07;;;;;;;;;;5027929;28;20193;-68
2021/03/10 06:49:26;;;;;;;59.23;28.93;;;;;;;;;;5034019;28;20704;-68
2021/03/10 06:51:56;;;;;;;58.03;29.03;;;;;;;;;;5030123;28;20650;-69
2021/03/10 06:54:22;;;;;;;63.23;29.63;;;;;;;;;;5034477;28;20189;-68
2021/03/10 06:57:05;;;;;;;53.87;29.50;;;;;;;;;;5028594;28;20331;-68
2021/03/10 06:59:40;;;;;;;59.63;28.80;;;;;;;;;;4337903;28;10021611;-68
2021/03/10 07:02:11;;;;;;;55.70;28.93;;;;;;;;;;5023689;28;20660;-68
2021/03/10 07:04:39;;;;;;;63.13;30.30;;;;;;;;;;5030655;28;20244;-68
2021/03/10 07:07:05;;;;;;;58.80;29.63;;;;;;;;;;5025174;28;20182;-68
2021/03/10 07:09:32;;;;;;;61.17;29.23;;;;;;;;;;5036207;28;20197;-68
2021/03/10 07:11:58;;;;;;;62.30;31.07;;;;;;;;;;5022330;28;20218;-68
2021/03/10 07:14:25;;;;;;;54.90;29.10;;;;;;;;;;5035603;28;21015;-68
2021/03/10 07:16:51;;;;;;;61.17;29.87;;;;;;;;;;5026788;28;20583;-68
2021/03/10 07:19:18;;;;;;;51.60;29.27;;;;;;;;;;5037130;28;20637;-69
2021/03/10 07:21:51;;;;;;;56.50;30.67;;;;;;;;;;5023642;28;21122;-69
2021/03/10 07:24:34;;;;;;;54.33;28.73;;;;;;;;;;5040664;28;20593;-69
2021/03/10 07:27:00;;;;;;;61.23;31.67;;;;;;;;;;5032339;28;20193;-69
2021/03/10 07:29:27;;;;;;;57.43;32.17;;;;;;;;;;5045956;28;20691;-69
2021/03/10 07:32:00;;;;;;;58.00;30.03;;;;;;;;;;5038111;28;20197;-69
2021/03/10 07:34:26;;;;;;;58.40;31.60;;;;;;;;;;5038672;28;20200;-69
2021/03/10 07:36:52;;;;;;;59.40;30.53;;;;;;;;;;5037311;28;20653;-69
2021/03/10 07:39:26;;;;;;;55.37;30.13;;;;;;;;;;5034328;28;20185;-69
2021/03/10 07:41:52;;;;;;;54.90;30.17;;;;;;;;;;5037944;28;20182;-69
2021/03/10 07:44:25;;;;;;;54.90;29.60;;;;;;;;;;5028736;28;20246;-69
2021/03/10 07:47:10;;;;;;;57.90;31.03;;;;;;;;;;5040458;28;20185;-69
2021/03/10 07:49:37;;;;;;;53.60;28.17;;;;;;;;;;5031681;28;20219;-69
2021/03/10 07:52:07;;;;;;;53.23;29.13;;;;;;;;;;5036148;28;20532;-69
2021/03/10 07:54:33;;;;;;;53.70;28.27;;;;;;;;;;5030738;28;20633;-69
2021/03/10 07:57:18;;;;;;;50.43;28.73;;;;;;;;;;5033745;28;20229;-69
2021/03/10 07:59:57;;;;;;;46.03;28.50;;;;;;;;;;5029793;28;20197;-69
2021/03/10 08:02:24;;;;;;;44.73;27.50;;;;;;;;;;5036078;28;20181;-69
2021/03/10 08:04:59;;;;;;;45.80;27.93;;;;;;;;;;5028117;28;20419;-69
2021/03/10 08:07:29;;;;;;;41.27;24.93;;;;;;;;;;5035675;28;20185;-69
2021/03/10 08:09:56;;;;;;;44.47;26.87;;;;;;;;;;5029749;28;20186;-69
2021/03/10 08:12:36;;;;;;;46.23;27.37;;;;;;;;;;5032526;28;20192;-69
2021/03/10 08:15:03;;;;;;;48.30;26.20;;;;;;;;;;5027884;28;20193;-69
2021/03/10 08:17:30;;;;;;;43.77;25.63;;;;;;;;;;5038980;28;20300;-69
2021/03/10 08:19:57;;;;;;;37.40;24.67;;;;;;;;;;5033582;28;20198;-69
2021/03/10 08:22:24;;;;;;;41.87;25.50;;;;;;;;;;5039717;28;20617;-69
2021/03/10 08:24:53;;;;;;;40.83;25.33;;;;;;;;;;5031805;28;20189;-69
2021/03/10 08:27:36;;;;;;;37.03;23.70;;;;;;;;;;5033542;28;20544;-69
2021/03/10 08:30:05;;;;;;;38.83;23.53;;;;;;;;;;5026593;28;20285;-69
2021/03/10 08:32:32;;;;;;;37.30;23.27;;;;;;;;;;5041367;28;20229;-69
2021/03/10 08:35:07;;;;;;;36.07;22.87;;;;;;;;;;5037508;28;20243;-70
2021/03/10 08:37:32;;;;;;;36.27;22.57;;;;;;;;;;5033522;28;20726;-69
2021/03/10 08:39:58;;;;;;;37.43;22.83;;;;;;;;;;5035664;28;20209;-70
2021/03/10 08:42:23;;;;;;;37.28;21.38;;;;;;;;;;4676491;28;10001231;-70
2021/03/10 08:44:51;;;;;;;33.63;21.10;;;;;;;;;;4684802;28;10000077;-70
2021/03/10 08:47:18;;;;;;;34.30;21.40;;;;;;;;;;5023298;28;20656;-70
2021/03/10 08:49:44;;;;;;;30.97;20.20;;;;;;;;;;5031724;28;20302;-70
2021/03/10 08:52:12;;;;;;;31.63;20.97;;;;;;;;;;5027278;28;20181;-70
2021/03/10 08:54:53;;;;;;;32.77;21.30;;;;;;;;;;5037880;28;20178;-69
2021/03/10 08:57:28;;;;;;;31.43;20.37;;;;;;;;;;4675664;28;10000175;-69
2021/03/10 08:59:53;;;;;;;31.07;19.80;;;;;;;;;;5032877;28;20556;-69
2021/03/10 09:02:33;;;;;;;31.60;20.20;;;;;;;;;;5022285;28;20194;-69
2021/03/10 09:05:03;;;;;;;33.97;20.13;;;;;;;;;;5032886;28;20601;-69
2021/03/10 09:07:29;;;;;;;29.97;20.03;;;;;;;;;;5024662;28;20332;-70
2021/03/10 09:09:57;;;;;;;30.77;18.87;;;;;;;;;;5035246;28;20256;-70
2021/03/10 09:12:24;;;;;;;32.17;20.47;;;;;;;;;;5028990;28;20714;-70
2021/03/10 09:14:49;;;;;;;31.07;19.43;;;;;;;;;;5034038;28;20189;-70
2021/03/10 09:17:15;;;;;;;31.77;20.33;;;;;;;;;;5037004;28;20550;-70
2021/03/10 09:19:44;;;;;;;32.97;21.53;;;;;;;;;;5021565;28;20182;-69
2021/03/10 09:22:14;;;;;;;31.50;20.03;;;;;;;;;;5026491;28;20220;-69
2021/03/10 09:24:56;;;;;;;34.90;21.80;;;;;;;;;;5028281;28;20295;-69
2021/03/10 09:27:22;;;;;;;32.17;20.50;;;;;;;;;;5023071;28;20284;-69
2021/03/10 09:29:49;;;;;;;34.77;22.20;;;;;;;;;;5024185;28;20268;-70
2021/03/10 09:32:15;;;;;;;34.87;21.57;;;;;;;;;;5035826;28;20216;-70
2021/03/10 09:34:40;;;;;;;34.27;20.03;;;;;;;;;;5025362;28;20416;-69
2021/03/10 09:37:08;;;;;;;35.87;20.47;;;;;;;;;;5042651;28;20280;-69
2021/03/10 09:39:41;;;;;;;35.83;22.17;;;;;;;;;;5031270;28;20590;-69
2021/03/10 09:42:07;;;;;;;35.70;20.87;;;;;;;;;;5044730;28;20188;-69
2021/03/10 09:44:49;;;;;;;35.50;21.43;;;;;;;;;;5031338;28;20186;-69
2021/03/10 09:47:16;;;;;;;34.20;21.02;;;;;;;;;;5032502;28;20297;-69
2021/03/10 09:49:56;;;;;;;33.80;21.40;;;;;;;;;;5032066;28;20327;-69
2021/03/10 09:52:32;;;;;;;33.57;20.23;;;;;;;;;;5039701;28;20216;-69
2021/03/10 09:54:58;;;;;;;32.57;19.97;;;;;;;;;;5029354;28;20196;-69
2021/03/10 09:57:28;;;;;;;31.13;19.33;;;;;;;;;;5038658;28;20684;-69
2021/03/10 09:59:57;;;;;;;34.80;20.42;;;;;;;;;;5030328;28;20196;-69
2021/03/10 10:02:24;;;;;;;32.85;20.02;;;;;;;;;;5034696;28;20850;-70
2021/03/10 10:05:04;;;;;;;33.92;21.13;;;;;;;;;;5032919;28;20259;-70
2021/03/10 10:07:30;;;;;;;27.33;18.40;;;;;;;;;;5044568;28;20185;-69
2021/03/10 10:09:56;;;;;;;35.03;20.57;;;;;;;;;;5042534;28;20201;-69
2021/03/10 10:12:22;;;;;;;31.37;20.63;;;;;;;;;;5032950;28;20186;-69
2021/03/10 10:14:49;;;;;;;31.27;20.27;;;;;;;;;;5041260;28;20201;-69
2021/03/10 10:17:14;;;;;;;31.47;19.07;;;;;;;;;;5033969;28;20219;-70
2021/03/10 10:19:41;;;;;;;32.03;19.67;;;;;;;;;;5042642;28;20190;-69
2021/03/10 10:22:07;;;;;;;34.03;20.23;;;;;;;;;;5031678;28;20536;-70
2021/03/10 10:24:32;;;;;;;32.47;20.33;;;;;;;;;;5040574;28;20193;-69
2021/03/10 10:26:58;;;;;;;32.23;21.57;;;;;;;;;;5032056;28;20182;-69
2021/03/10 10:29:23;;;;;;;31.80;19.87;;;;;;;;;;5038182;28;20235;-69
2021/03/10 10:31:49;;;;;;;35.43;22.57;;;;;;;;;;5030355;28;20185;-69
2021/03/10 10:34:14;;;;;;;37.70;22.83;;;;;;;;;;5039925;28;20187;-69
2021/03/10 10:36:39;;;;;;;39.63;23.40;;;;;;;;;;5036364;28;20236;-70
2021/03/10 10:39:05;;;;;;;37.90;22.53;;;;;;;;;;5038787;28;20204;-70
2021/03/10 10:41:31;;;;;;;38.83;23.90;;;;;;;;;;4690361;28;10000371;-70
2021/03/10 10:43:57;;;;;;;38.13;23.67;;;;;;;;;;5029064;28;20643;-69
2021/03/10 10:46:22;;;;;;;39.13;24.43;;;;;;;;;;5043600;28;20189;-69
2021/03/10 10:48:48;;;;;;;36.33;22.80;;;;;;;;;;5031907;28;20186;-70
2021/03/10 10:51:16;;;;;;;36.77;23.53;;;;;;;;;;5032867;28;20248;-70
2021/03/10 10:53:41;;;;;;;34.43;22.60;;;;;;;;;;5035140;28;20228;-69
2021/03/10 10:56:07;;;;;;;38.20;22.90;;;;;;;;;;5041849;28;20608;-70
2021/03/10 10:58:32;;;;;;;34.57;23.13;;;;;;;;;;5026750;28;20213;-70
2021/03/10 11:00:57;;;;;;;35.63;22.73;;;;;;;;;;5044623;28;20264;-69
2021/03/10 11:03:23;;;;;;;40.80;24.93;;;;;;;;;;5032043;28;20193;-69
2021/03/10 11:05:49;;;;;;;41.33;24.17;;;;;;;;;;5040004;28;20243;-70
2021/03/10 11:08:15;;;;;;;39.23;23.80;;;;;;;;;;5033804;28;20189;-70
2021/03/10 11:10:40;;;;;;;37.77;24.03;;;;;;;;;;5036214;28;20194;-69
2021/03/10 11:13:06;;;;;;;42.37;24.13;;;;;;;;;;5038835;28;20711;-69
2021/03/10 11:15:31;;;;;;;38.23;23.83;;;;;;;;;;5035219;28;20720;-69
2021/03/10 11:17:57;;;;;;;37.70;23.93;;;;;;;;;;5040381;28;20580;-69
2021/03/10 11:20:22;;;;;;;38.23;24.10;;;;;;;;;;5031840;28;20213;-69
2021/03/10 11:22:47;;;;;;;37.88;24.48;;;;;;;;;;5042436;28;20252;-69
2021/03/10 11:25:13;;;;;;;41.28;24.55;;;;;;;;;;5030307;28;20236;-69
2021/03/10 11:27:39;;;;;;;39.33;23.50;;;;;;;;;;5038571;28;20194;-69
2021/03/10 11:30:08;;;;;;;39.38;23.45;;;;;;;;;;5033906;28;20603;-69
2021/03/10 11:32:34;;;;;;;38.77;24.17;;;;;;;;;;5041702;28;20201;-69
2021/03/10 11:35:00;;;;;;;39.28;24.50;;;;;;;;;;5027359;28;20196;-70
2021/03/10 11:37:25;;;;;;;38.57;24.37;;;;;;;;;;5034949;28;20636;-70
2021/03/10 11:39:51;;;;;;;41.37;25.57;;;;;;;;;;5030908;28;20190;-70
2021/03/10 11:42:16;;;;;;;37.70;24.17;;;;;;;;;;5036908;28;20578;-70
2021/03/10 11:44:42;;;;;;;39.90;24.98;;;;;;;;;;5034325;28;20186;-70
2021/03/10 11:47:07;;;;;;;39.63;24.75;;;;;;;;;;5026853;28;20272;-70
2021/03/10 11:49:32;;;;;;;37.08;23.73;;;;;;;;;;5032875;28;20512;-70
2021/03/10 11:51:58;;;;;;;35.90;23.40;;;;;;;;;;5031503;28;20247;-70
2021/03/10 11:54:26;;;;;;;43.05;25.63;;;;;;;;;;5042715;28;20173;-69
2021/03/10 11:56:52;;;;;;;36.60;23.55;;;;;;;;;;5028924;28;20300;-69
2021/03/10 11:59:17;;;;;;;40.42;24.30;;;;;;;;;;5039464;28;21082;-69
2021/03/10 12:01:43;;;;;;;39.85;24.08;;;;;;;;;;5036444;28;20194;-70
2021/03/10 12:04:08;;;;;;;38.72;25.77;;;;;;;;;;5031341;28;20263;-69
2021/03/10 12:06:34;;;;;;;40.95;24.73;;;;;;;;;;5022567;28;21277;-69
2021/03/10 12:08:59;;;;;;;36.53;24.23;;;;;;;;;;5032052;28;20199;-69
2021/03/10 12:11:24;;;;;;;37.95;24.13;;;;;;;;;;5022306;28;20205;-69
2021/03/10 12:13:50;;;;;;;37.38;23.80;;;;;;;;;;4680818;28;10000548;-69
2021/03/10 12:16:15;;;;;;;39.47;24.05;;;;;;;;;;5033417;28;20723;-69
2021/03/10 12:18:40;;;;;;;38.80;24.10;;;;;;;;;;5017559;28;20221;-70
2021/03/10 12:21:06;;;;;;;40.20;25.15;;;;;;;;;;5030553;28;20186;-70
2021/03/10 12:23:32;;;;;;;42.72;24.60;;;;;;;;;;5022176;28;20569;-70
2021/03/10 12:25:58;;;;;;;34.83;23.23;;;;;;;;;;5035149;28;20264;-71
2021/03/10 12:28:23;;;;;;;37.72;24.48;;;;;;;;;;5024298;28;20192;-70
2021/03/10 12:30:48;;;;;;;37.65;24.10;;;;;;;;;;5037679;28;20186;-70
2021/03/10 12:33:13;;;;;;;35.85;23.23;;;;;;;;;;5027232;28;20193;-72
2021/03/10 12:35:39;;;;;;;40.58;23.20;;;;;;;;;;5036217;28;20189;-70
2021/03/10 12:38:04;;;;;;;38.05;23.40;;;;;;;;;;5024815;28;20661;-70
2021/03/10 12:40:30;;;;;;;36.33;22.05;;;;;;;;;;5037646;28;20217;-70
2021/03/10 12:42:55;;;;;;;35.97;23.30;;;;;;;;;;5023880;28;20292;-70
2021/03/10 12:45:21;;;;;;;37.13;21.58;;;;;;;;;;5034585;28;20208;-69
2021/03/10 12:47:47;;;;;;;33.08;22.27;;;;;;;;;;5035190;28;20181;-70
2021/03/10 12:50:13;;;;;;;38.60;21.85;;;;;;;;;;5023928;28;20357;-70
2021/03/10 12:52:38;;;;;;;38.40;21.40;;;;;;;;;;5035563;28;20283;-70
2021/03/10 12:55:05;;;;;;;34.35;21.95;;;;;;;;;;5027255;28;20732;-70
2021/03/10 12:57:31;;;;;;;33.42;21.48;;;;;;;;;;5039831;28;20574;-70
2021/03/10 12:59:56;;;;;;;33.50;21.88;;;;;;;;;;5033721;28;20193;-69
2021/03/10 13:02:21;;;;;;;33.87;21.10;;;;;;;;;;5041551;28;20205;-70
2021/03/10 13:04:47;;;;;;;35.90;20.48;;;;;;;;;;5031726;28;20212;-69
2021/03/10 13:07:12;;;;;;;38.20;21.70;;;;;;;;;;5039830;28;20652;-70
2021/03/10 13:09:38;;;;;;;35.50;20.20;;;;;;;;;;5028997;28;20610;-70
2021/03/10 13:12:04;;;;;;;31.55;19.30;;;;;;;;;;5042353;28;20186;-70
2021/03/10 13:14:29;;;;;;;34.78;20.33;;;;;;;;;;5030077;28;20205;-70
2021/03/10 13:16:54;;;;;;;30.77;20.30;;;;;;;;;;5048024;28;20198;-70
2021/03/10 13:19:20;;;;;;;31.35;19.33;;;;;;;;;;5040895;28;20178;-70
2021/03/10 13:21:45;;;;;;;32.72;19.55;;;;;;;;;;5037360;28;20609;-70
2021/03/10 13:24:10;;;;;;;33.03;20.63;;;;;;;;;;5044034;28;20182;-70
2021/03/10 13:26:36;;;;;;;32.90;19.42;;;;;;;;;;5038258;28;20193;-70
2021/03/10 13:29:01;;;;;;;31.25;20.00;;;;;;;;;;5039489;28;20683;-70
2021/03/10 13:31:27;;;;;;;31.63;19.27;;;;;;;;;;5031207;28;20181;-70
2021/03/10 13:33:52;;;;;;;31.67;20.20;;;;;;;;;;5044903;28;20173;-70
2021/03/10 13:36:18;;;;;;;32.95;18.67;;;;;;;;;;5030481;28;20276;-70
2021/03/10 13:38:44;;;;;;;30.25;19.30;;;;;;;;;;5040698;28;20208;-70
2021/03/10 13:41:10;;;;;;;30.10;19.13;;;;;;;;;;5030340;28;20198;-70
2021/03/10 13:43:35;;;;;;;31.98;18.77;;;;;;;;;;5044230;28;20181;-70
2021/03/10 13:46:01;;;;;;;29.75;19.02;;;;;;;;;;5035930;28;20205;-70
2021/03/10 13:48:26;;;;;;;31.88;19.48;;;;;;;;;;5039852;28;20239;-70
2021/03/10 13:50:52;;;;;;;28.42;17.30;;;;;;;;;;5040842;28;20198;-70
2021/03/10 13:53:18;;;;;;;29.90;18.70;;;;;;;;;;5026877;28;20227;-70
2021/03/10 13:55:44;;;;;;;29.58;19.02;;;;;;;;;;5043601;28;20197;-69
2021/03/10 13:58:09;;;;;;;33.15;20.52;;;;;;;;;;5032934;28;20205;-70
2021/03/10 14:00:35;;;;;;;32.35;19.15;;;;;;;;;;5040356;28;20185;-70
2021/03/10 14:03:01;;;;;;;30.80;18.27;;;;;;;;;;5027343;28;20204;-69
2021/03/10 14:05:27;;;;;;;28.70;18.80;;;;;;;;;;5035746;28;20228;-69
2021/03/10 14:07:52;;;;;;;27.25;17.42;;;;;;;;;;5030041;28;20273;-69
2021/03/10 14:10:18;;;;;;;32.88;18.65;;;;;;;;;;5032088;28;20182;-69
2021/03/10 14:12:45;;;;;;;33.38;18.60;;;;;;;;;;5028868;28;20193;-69
2021/03/10 14:15:10;;;;;;;29.02;18.63;;;;;;;;;;5038651;28;20684;-69
2021/03/10 14:17:36;;;;;;;27.30;18.35;;;;;;;;;;5038082;28;20217;-69